sensor_id;sensor_type;location;lat;lon;timestamp;P1;P2;P0
40947;PMS5003;49382;-25.924;28.194;2022-12-10T00:02:25;6;6;
40947;PMS5003;49382;-25.924;28.194;2022-12-10T00:04:51;7;7;
40947;PMS5003;49382;-25.924;28.194;2022-12-10T00:07:17;7;7;
40947;PMS5003;49382;-25.924;28.194;2022-12-10T00:09:42;8;7;
40947;PMS5003;49382;-25.924;28.194;2022-12-10T00:12:08;7;7;
40947;PMS5003;49382;-25.924;28.194;2022-12-10T00:14:34;8;8;
40947;PMS5003;49382;-25.924;28.194;2022-12-10T00:17:00;7;7;
40947;PMS5003;49382;-25.924;28.194;2022-12-10T00:19:25;8;8;
40947;PMS5003;49382;-25.924;28.194;2022-12-10T00:21:51;7;7;
40947;PMS5003;49382;-25.924;28.194;2022-12-10T00:24:17;10;10;
40947;PMS5003;49382;-25.924;28.194;2022-12-10T00:26:42;7;7;
40947;PMS5003;49382;-25.924;28.194;2022-12-10T00:29:09;14;14;
40947;PMS5003;49382;-25.924;28.194;2022-12-10T00:31:35;10;9;
40947;PMS5003;49382;-25.924;28.194;2022-12-10T00:34:00;9;9;
40947;PMS5003;49382;-25.924;28.194;2022-12-10T00:36:26;6;6;
40947;PMS5003;49382;-25.924;28.194;2022-12-10T00:38:51;7;7;
40947;PMS5003;49382;-25.924;28.194;2022-12-10T00:41:17;7;7;
40947;PMS5003;49382;-25.924;28.194;2022-12-10T00:43:43;7;7;
40947;PMS5003;49382;-25.924;28.194;2022-12-10T00:46:08;8;8;
40947;PMS5003;49382;-25.924;28.194;2022-12-10T00:48:34;9;8;
40947;PMS5003;49382;-25.924;28.194;2022-12-10T00:51:01;10;9;
40947;PMS5003;49382;-25.924;28.194;2022-12-10T00:53:26;7;7;
40947;PMS5003;49382;-25.924;28.194;2022-12-10T00:55:51;8;8;
40947;PMS5003;49382;-25.924;28.194;2022-12-10T00:58:16;7;7;
40947;PMS5003;49382;-25.924;28.194;2022-12-10T01:00:42;9;9;
40947;PMS5003;49382;-25.924;28.194;2022-12-10T01:03:08;7;7;
40947;PMS5003;49382;-25.924;28.194;2022-12-10T01:05:33;8;7;
40947;PMS5003;49382;-25.924;28.194;2022-12-10T01:07:59;8;8;
40947;PMS5003;49382;-25.924;28.194;2022-12-10T01:10:25;7;7;
40947;PMS5003;49382;-25.924;28.194;2022-12-10T01:12:51;7;7;
40947;PMS5003;49382;-25.924;28.194;2022-12-10T01:15:17;7;7;
40947;PMS5003;49382;-25.924;28.194;2022-12-10T01:17:43;7;7;
40947;PMS5003;49382;-25.924;28.194;2022-12-10T01:20:09;6;5;
40947;PMS5003;49382;-25.924;28.194;2022-12-10T01:22:34;6;6;
40947;PMS5003;49382;-25.924;28.194;2022-12-10T01:25:00;6;6;
40947;PMS5003;49382;-25.924;28.194;2022-12-10T01:27:26;6;5;
40947;PMS5003;49382;-25.924;28.194;2022-12-10T01:29:52;8;8;
40947;PMS5003;49382;-25.924;28.194;2022-12-10T01:32:17;8;8;
40947;PMS5003;49382;-25.924;28.194;2022-12-10T01:34:43;7;7;
40947;PMS5003;49382;-25.924;28.194;2022-12-10T01:37:09;6;6;
40947;PMS5003;49382;-25.924;28.194;2022-12-10T01:39:35;5;5;
40947;PMS5003;49382;-25.924;28.194;2022-12-10T01:42:01;7;7;
40947;PMS5003;49382;-25.924;28.194;2022-12-10T01:46:53;8;8;
40947;PMS5003;49382;-25.924;28.194;2022-12-10T01:49:19;9;9;
40947;PMS5003;49382;-25.924;28.194;2022-12-10T01:51:45;8;8;
40947;PMS5003;49382;-25.924;28.194;2022-12-10T01:54:11;10;10;
40947;PMS5003;49382;-25.924;28.194;2022-12-10T01:56:36;9;8;
40947;PMS5003;49382;-25.924;28.194;2022-12-10T01:59:01;10;10;
40947;PMS5003;49382;-25.924;28.194;2022-12-10T02:01:27;10;10;
40947;PMS5003;49382;-25.924;28.194;2022-12-10T02:03:56;9;9;
40947;PMS5003;49382;-25.924;28.194;2022-12-10T02:06:24;10;10;
40947;PMS5003;49382;-25.924;28.194;2022-12-10T02:08:46;10;10;
40947;PMS5003;49382;-25.924;28.194;2022-12-10T02:11:11;9;9;
40947;PMS5003;49382;-25.924;28.194;2022-12-10T02:13:38;10;10;
40947;PMS5003;49382;-25.924;28.194;2022-12-10T02:16:03;14;14;
40947;PMS5003;49382;-25.924;28.194;2022-12-10T02:18:29;10;10;
40947;PMS5003;49382;-25.924;28.194;2022-12-10T02:20:55;10;10;
40947;PMS5003;49382;-25.924;28.194;2022-12-10T02:23:21;11;11;
40947;PMS5003;49382;-25.924;28.194;2022-12-10T02:25:46;12;11;
40947;PMS5003;49382;-25.924;28.194;2022-12-10T02:28:13;11;11;
40947;PMS5003;49382;-25.924;28.194;2022-12-10T02:30:37;9;9;
40947;PMS5003;49382;-25.924;28.194;2022-12-10T02:33:03;11;11;
40947;PMS5003;49382;-25.924;28.194;2022-12-10T02:35:30;11;11;
40947;PMS5003;49382;-25.924;28.194;2022-12-10T02:37:55;11;11;
40947;PMS5003;49382;-25.924;28.194;2022-12-10T02:40:22;12;12;
40947;PMS5003;49382;-25.924;28.194;2022-12-10T02:42:47;12;11;
40947;PMS5003;49382;-25.924;28.194;2022-12-10T02:45:12;11;11;
40947;PMS5003;49382;-25.924;28.194;2022-12-10T02:47:38;14;14;
40947;PMS5003;49382;-25.924;28.194;2022-12-10T02:50:04;11;11;
40947;PMS5003;49382;-25.924;28.194;2022-12-10T02:52:29;11;11;
40947;PMS5003;49382;-25.924;28.194;2022-12-10T02:54:54;8;8;
40947;PMS5003;49382;-25.924;28.194;2022-12-10T02:57:23;9;9;
40947;PMS5003;49382;-25.924;28.194;2022-12-10T02:59:48;7;7;
40947;PMS5003;49382;-25.924;28.194;2022-12-10T03:02:12;8;8;
40947;PMS5003;49382;-25.924;28.194;2022-12-10T03:04:38;6;6;
40947;PMS5003;49382;-25.924;28.194;2022-12-10T03:07:04;7;7;
40947;PMS5003;49382;-25.924;28.194;2022-12-10T03:09:29;6;6;
40947;PMS5003;49382;-25.924;28.194;2022-12-10T03:11:56;9;9;
40947;PMS5003;49382;-25.924;28.194;2022-12-10T03:14:22;9;8;
40947;PMS5003;49382;-25.924;28.194;2022-12-10T03:16:46;11;11;
40947;PMS5003;49382;-25.924;28.194;2022-12-10T03:19:13;13;13;
40947;PMS5003;49382;-25.924;28.194;2022-12-10T03:21:37;10;10;
40947;PMS5003;49382;-25.924;28.194;2022-12-10T03:24:03;9;9;
40947;PMS5003;49382;-25.924;28.194;2022-12-10T03:26:29;7;7;
40947;PMS5003;49382;-25.924;28.194;2022-12-10T03:28:56;7;7;
40947;PMS5003;49382;-25.924;28.194;2022-12-10T03:31:21;7;7;
40947;PMS5003;49382;-25.924;28.194;2022-12-10T03:33:46;5;5;
40947;PMS5003;49382;-25.924;28.194;2022-12-10T03:36:12;8;8;
40947;PMS5003;49382;-25.924;28.194;2022-12-10T03:38:38;6;6;
40947;PMS5003;49382;-25.924;28.194;2022-12-10T03:41:04;6;6;
40947;PMS5003;49382;-25.924;28.194;2022-12-10T03:43:29;6;5;
40947;PMS5003;49382;-25.924;28.194;2022-12-10T03:45:55;8;8;
40947;PMS5003;49382;-25.924;28.194;2022-12-10T03:48:20;7;7;
40947;PMS5003;49382;-25.924;28.194;2022-12-10T03:50:46;6;6;
40947;PMS5003;49382;-25.924;28.194;2022-12-10T03:53:12;7;7;
40947;PMS5003;49382;-25.924;28.194;2022-12-10T03:55:38;9;9;
40947;PMS5003;49382;-25.924;28.194;2022-12-10T03:58:03;11;10;
40947;PMS5003;49382;-25.924;28.194;2022-12-10T04:00:28;12;11;
40947;PMS5003;49382;-25.924;28.194;2022-12-10T04:02:54;10;10;
40947;PMS5003;49382;-25.924;28.194;2022-12-10T04:05:20;10;10;
40947;PMS5003;49382;-25.924;28.194;2022-12-10T04:07:46;11;11;
40947;PMS5003;49382;-25.924;28.194;2022-12-10T04:10:12;10;10;
40947;PMS5003;49382;-25.924;28.194;2022-12-10T04:12:38;9;9;
40947;PMS5003;49382;-25.924;28.194;2022-12-10T04:15:04;10;10;
40947;PMS5003;49382;-25.924;28.194;2022-12-10T04:17:31;10;10;
40947;PMS5003;49382;-25.924;28.194;2022-12-10T04:19:55;9;9;
40947;PMS5003;49382;-25.924;28.194;2022-12-10T04:22:21;7;7;
40947;PMS5003;49382;-25.924;28.194;2022-12-10T04:24:47;7;7;
40947;PMS5003;49382;-25.924;28.194;2022-12-10T04:27:13;9;9;
40947;PMS5003;49382;-25.924;28.194;2022-12-10T04:29:39;6;6;
40947;PMS5003;49382;-25.924;28.194;2022-12-10T04:32:04;7;7;
40947;PMS5003;49382;-25.924;28.194;2022-12-10T04:34:30;6;6;
40947;PMS5003;49382;-25.924;28.194;2022-12-10T04:36:56;8;8;
40947;PMS5003;49382;-25.924;28.194;2022-12-10T04:39:21;9;9;
40947;PMS5003;49382;-25.924;28.194;2022-12-10T04:41:47;7;6;
40947;PMS5003;49382;-25.924;28.194;2022-12-10T04:44:13;8;8;
40947;PMS5003;49382;-25.924;28.194;2022-12-10T04:46:39;7;7;
40947;PMS5003;49382;-25.924;28.194;2022-12-10T04:49:04;12;12;
40947;PMS5003;49382;-25.924;28.194;2022-12-10T04:51:30;7;7;
40947;PMS5003;49382;-25.924;28.194;2022-12-10T04:53:56;8;8;
40947;PMS5003;49382;-25.924;28.194;2022-12-10T04:56:22;7;7;
40947;PMS5003;49382;-25.924;28.194;2022-12-10T04:58:48;6;6;
40947;PMS5003;49382;-25.924;28.194;2022-12-10T05:01:13;6;6;
40947;PMS5003;49382;-25.924;28.194;2022-12-10T05:03:39;5;5;
40947;PMS5003;49382;-25.924;28.194;2022-12-10T05:06:06;8;8;
40947;PMS5003;49382;-25.924;28.194;2022-12-10T05:08:31;7;7;
40947;PMS5003;49382;-25.924;28.194;2022-12-10T05:10:55;8;6;
40947;PMS5003;49382;-25.924;28.194;2022-12-10T05:13:21;8;8;
40947;PMS5003;49382;-25.924;28.194;2022-12-10T05:15:47;5;5;
40947;PMS5003;49382;-25.924;28.194;2022-12-10T05:18:13;6;6;
40947;PMS5003;49382;-25.924;28.194;2022-12-10T05:20:38;8;8;
40947;PMS5003;49382;-25.924;28.194;2022-12-10T05:23:04;7;6;
40947;PMS5003;49382;-25.924;28.194;2022-12-10T05:25:30;5;5;
40947;PMS5003;49382;-25.924;28.194;2022-12-10T05:27:56;7;6;
40947;PMS5003;49382;-25.924;28.194;2022-12-10T05:30:22;17;17;
40947;PMS5003;49382;-25.924;28.194;2022-12-10T05:32:48;23;22;
40947;PMS5003;49382;-25.924;28.194;2022-12-10T05:35:13;19;19;
40947;PMS5003;49382;-25.924;28.194;2022-12-10T05:37:39;9;9;
40947;PMS5003;49382;-25.924;28.194;2022-12-10T05:40:05;7;7;
40947;PMS5003;49382;-25.924;28.194;2022-12-10T05:42:31;8;8;
40947;PMS5003;49382;-25.924;28.194;2022-12-10T05:44:56;6;6;
40947;PMS5003;49382;-25.924;28.194;2022-12-10T05:47:22;4;4;
40947;PMS5003;49382;-25.924;28.194;2022-12-10T05:49:48;9;7;
40947;PMS5003;49382;-25.924;28.194;2022-12-10T05:52:14;6;5;
40947;PMS5003;49382;-25.924;28.194;2022-12-10T05:54:40;6;5;
40947;PMS5003;49382;-25.924;28.194;2022-12-10T05:57:05;7;6;
40947;PMS5003;49382;-25.924;28.194;2022-12-10T05:59:31;6;6;
40947;PMS5003;49382;-25.924;28.194;2022-12-10T06:01:57;8;7;
40947;PMS5003;49382;-25.924;28.194;2022-12-10T06:04:23;7;7;
40947;PMS5003;49382;-25.924;28.194;2022-12-10T06:06:48;8;8;
40947;PMS5003;49382;-25.924;28.194;2022-12-10T06:09:14;7;7;
40947;PMS5003;49382;-25.924;28.194;2022-12-10T06:11:40;6;6;
40947;PMS5003;49382;-25.924;28.194;2022-12-10T06:14:06;5;5;
40947;PMS5003;49382;-25.924;28.194;2022-12-10T06:16:31;6;6;
40947;PMS5003;49382;-25.924;28.194;2022-12-10T06:18:57;5;5;
40947;PMS5003;49382;-25.924;28.194;2022-12-10T06:21:23;4;4;
40947;PMS5003;49382;-25.924;28.194;2022-12-10T06:23:49;6;6;
40947;PMS5003;49382;-25.924;28.194;2022-12-10T06:26:15;7;7;
40947;PMS5003;49382;-25.924;28.194;2022-12-10T06:28:41;6;6;
40947;PMS5003;49382;-25.924;28.194;2022-12-10T06:31:06;5;5;
40947;PMS5003;49382;-25.924;28.194;2022-12-10T06:33:32;7;6;
40947;PMS5003;49382;-25.924;28.194;2022-12-10T06:35:58;6;6;
40947;PMS5003;49382;-25.924;28.194;2022-12-10T06:38:23;6;6;
40947;PMS5003;49382;-25.924;28.194;2022-12-10T06:40:49;5;5;
40947;PMS5003;49382;-25.924;28.194;2022-12-10T06:43:15;5;5;
40947;PMS5003;49382;-25.924;28.194;2022-12-10T06:45:42;5;5;
40947;PMS5003;49382;-25.924;28.194;2022-12-10T06:48:06;5;5;
40947;PMS5003;49382;-25.924;28.194;2022-12-10T06:50:32;4;4;
40947;PMS5003;49382;-25.924;28.194;2022-12-10T06:52:58;7;7;
40947;PMS5003;49382;-25.924;28.194;2022-12-10T06:55:24;4;4;
40947;PMS5003;49382;-25.924;28.194;2022-12-10T06:57:50;6;6;
40947;PMS5003;49382;-25.924;28.194;2022-12-10T07:00:15;5;5;
40947;PMS5003;49382;-25.924;28.194;2022-12-10T07:02:41;7;7;
40947;PMS5003;49382;-25.924;28.194;2022-12-10T07:05:07;7;7;
40947;PMS5003;49382;-25.924;28.194;2022-12-10T07:07:32;6;6;
40947;PMS5003;49382;-25.924;28.194;2022-12-10T07:09:58;5;5;
40947;PMS5003;49382;-25.924;28.194;2022-12-10T07:12:24;5;5;
40947;PMS5003;49382;-25.924;28.194;2022-12-10T07:14:49;5;5;
40947;PMS5003;49382;-25.924;28.194;2022-12-10T07:17:15;5;5;
40947;PMS5003;49382;-25.924;28.194;2022-12-10T07:19:41;6;6;
40947;PMS5003;49382;-25.924;28.194;2022-12-10T07:22:07;7;6;
40947;PMS5003;49382;-25.924;28.194;2022-12-10T07:24:33;6;6;
40947;PMS5003;49382;-25.924;28.194;2022-12-10T07:26:58;8;8;
40947;PMS5003;49382;-25.924;28.194;2022-12-10T07:29:24;8;8;
40947;PMS5003;49382;-25.924;28.194;2022-12-10T07:31:50;7;7;
40947;PMS5003;49382;-25.924;28.194;2022-12-10T07:34:16;6;6;
40947;PMS5003;49382;-25.924;28.194;2022-12-10T07:36:41;6;5;
40947;PMS5003;49382;-25.924;28.194;2022-12-10T07:39:08;7;7;
40947;PMS5003;49382;-25.924;28.194;2022-12-10T07:41:33;6;6;
40947;PMS5003;49382;-25.924;28.194;2022-12-10T07:43:59;6;6;
40947;PMS5003;49382;-25.924;28.194;2022-12-10T07:46:25;6;6;
40947;PMS5003;49382;-25.924;28.194;2022-12-10T07:48:50;6;6;
40947;PMS5003;49382;-25.924;28.194;2022-12-10T07:51:17;7;7;
40947;PMS5003;49382;-25.924;28.194;2022-12-10T07:53:42;8;7;
40947;PMS5003;49382;-25.924;28.194;2022-12-10T07:56:07;7;7;
40947;PMS5003;49382;-25.924;28.194;2022-12-10T07:58:33;6;6;
40947;PMS5003;49382;-25.924;28.194;2022-12-10T08:00:59;6;6;
40947;PMS5003;49382;-25.924;28.194;2022-12-10T08:03:25;6;6;
40947;PMS5003;49382;-25.924;28.194;2022-12-10T08:08:16;7;7;
40947;PMS5003;49382;-25.924;28.194;2022-12-10T08:10:42;6;6;
40947;PMS5003;49382;-25.924;28.194;2022-12-10T08:13:08;7;7;
40947;PMS5003;49382;-25.924;28.194;2022-12-10T08:15:33;6;6;
40947;PMS5003;49382;-25.924;28.194;2022-12-10T08:17:59;6;6;
40947;PMS5003;49382;-25.924;28.194;2022-12-10T08:20:25;5;5;
40947;PMS5003;49382;-25.924;28.194;2022-12-10T08:22:51;5;5;
40947;PMS5003;49382;-25.924;28.194;2022-12-10T08:25:16;5;5;
40947;PMS5003;49382;-25.924;28.194;2022-12-10T08:27:42;6;6;
40947;PMS5003;49382;-25.924;28.194;2022-12-10T08:30:08;6;6;
40947;PMS5003;49382;-25.924;28.194;2022-12-10T08:32:34;6;6;
40947;PMS5003;49382;-25.924;28.194;2022-12-10T08:34:59;7;7;
40947;PMS5003;49382;-25.924;28.194;2022-12-10T08:37:26;7;6;
40947;PMS5003;49382;-25.924;28.194;2022-12-10T08:39:51;6;6;
40947;PMS5003;49382;-25.924;28.194;2022-12-10T08:42:17;5;5;
40947;PMS5003;49382;-25.924;28.194;2022-12-10T08:44:42;5;4;
40947;PMS5003;49382;-25.924;28.194;2022-12-10T08:47:08;6;6;
40947;PMS5003;49382;-25.924;28.194;2022-12-10T08:49:34;7;7;
40947;PMS5003;49382;-25.924;28.194;2022-12-10T08:52:00;7;7;
40947;PMS5003;49382;-25.924;28.194;2022-12-10T08:54:26;8;8;
40947;PMS5003;49382;-25.924;28.194;2022-12-10T08:56:51;7;7;
40947;PMS5003;49382;-25.924;28.194;2022-12-10T08:59:17;9;9;
40947;PMS5003;49382;-25.924;28.194;2022-12-10T09:01:43;7;7;
40947;PMS5003;49382;-25.924;28.194;2022-12-10T09:04:08;9;7;
40947;PMS5003;49382;-25.924;28.194;2022-12-10T09:06:34;8;8;
40947;PMS5003;49382;-25.924;28.194;2022-12-10T09:09:00;9;9;
40947;PMS5003;49382;-25.924;28.194;2022-12-10T09:11:27;11;10;
40947;PMS5003;49382;-25.924;28.194;2022-12-10T09:13:52;23;23;
40947;PMS5003;49382;-25.924;28.194;2022-12-10T09:16:17;54;53;
40947;PMS5003;49382;-25.924;28.194;2022-12-10T09:18:43;12;12;
40947;PMS5003;49382;-25.924;28.194;2022-12-10T09:21:09;66;65;
40947;PMS5003;49382;-25.924;28.194;2022-12-10T09:23:33;55;55;
40947;PMS5003;49382;-25.924;28.194;2022-12-10T09:25:59;128;127;
40947;PMS5003;49382;-25.924;28.194;2022-12-10T09:28:25;82;81;
40947;PMS5003;49382;-25.924;28.194;2022-12-10T09:30:54;157;157;
40947;PMS5003;49382;-25.924;28.194;2022-12-10T09:33:16;127;127;
40947;PMS5003;49382;-25.924;28.194;2022-12-10T09:35:41;63;63;
40947;PMS5003;49382;-25.924;28.194;2022-12-10T09:38:07;133;133;
40947;PMS5003;49382;-25.924;28.194;2022-12-10T09:40:34;165;164;
40947;PMS5003;49382;-25.924;28.194;2022-12-10T09:42:58;31;31;
40947;PMS5003;49382;-25.924;28.194;2022-12-10T09:45:25;11;11;
40947;PMS5003;49382;-25.924;28.194;2022-12-10T09:47:52;52;52;
40947;PMS5003;49382;-25.924;28.194;2022-12-10T09:50:19;81;81;
40947;PMS5003;49382;-25.924;28.194;2022-12-10T09:52:40;12;10;
40947;PMS5003;49382;-25.924;28.194;2022-12-10T09:55:10;37;37;
40947;PMS5003;49382;-25.924;28.194;2022-12-10T09:57:33;36;36;
40947;PMS5003;49382;-25.924;28.194;2022-12-10T09:59:59;18;18;
40947;PMS5003;49382;-25.924;28.194;2022-12-10T10:02:24;11;11;
40947;PMS5003;49382;-25.924;28.194;2022-12-10T10:04:49;38;38;
40947;PMS5003;49382;-25.924;28.194;2022-12-10T10:07:17;19;19;
40947;PMS5003;49382;-25.924;28.194;2022-12-10T10:09:41;16;16;
40947;PMS5003;49382;-25.924;28.194;2022-12-10T10:12:09;12;12;
40947;PMS5003;49382;-25.924;28.194;2022-12-10T10:14:32;11;10;
40947;PMS5003;49382;-25.924;28.194;2022-12-10T10:16:59;13;13;
40947;PMS5003;49382;-25.924;28.194;2022-12-10T10:19:24;10;10;
40947;PMS5003;49382;-25.924;28.194;2022-12-10T10:21:50;13;13;
40947;PMS5003;49382;-25.924;28.194;2022-12-10T10:24:16;10;9;
40947;PMS5003;49382;-25.924;28.194;2022-12-10T10:26:41;11;11;
40947;PMS5003;49382;-25.924;28.194;2022-12-10T10:29:07;11;11;
40947;PMS5003;49382;-25.924;28.194;2022-12-10T10:31:33;10;10;
40947;PMS5003;49382;-25.924;28.194;2022-12-10T10:33:58;8;8;
40947;PMS5003;49382;-25.924;28.194;2022-12-10T10:36:24;10;10;
40947;PMS5003;49382;-25.924;28.194;2022-12-10T10:38:49;10;10;
40947;PMS5003;49382;-25.924;28.194;2022-12-10T10:41:15;12;12;
40947;PMS5003;49382;-25.924;28.194;2022-12-10T10:43:41;10;10;
40947;PMS5003;49382;-25.924;28.194;2022-12-10T10:46:10;12;11;
40947;PMS5003;49382;-25.924;28.194;2022-12-10T10:48:32;10;10;
40947;PMS5003;49382;-25.924;28.194;2022-12-10T10:53:25;13;12;
40947;PMS5003;49382;-25.924;28.194;2022-12-10T10:55:50;13;11;
40947;PMS5003;49382;-25.924;28.194;2022-12-10T10:58:17;12;12;
40947;PMS5003;49382;-25.924;28.194;2022-12-10T11:00:41;10;10;
40947;PMS5003;49382;-25.924;28.194;2022-12-10T11:03:07;14;13;
40947;PMS5003;49382;-25.924;28.194;2022-12-10T11:05:32;13;13;
40947;PMS5003;49382;-25.924;28.194;2022-12-10T11:07:59;12;12;
40947;PMS5003;49382;-25.924;28.194;2022-12-10T11:10:24;12;11;
40947;PMS5003;49382;-25.924;28.194;2022-12-10T11:12:53;11;11;
40947;PMS5003;49382;-25.924;28.194;2022-12-10T11:22:33;12;11;
40947;PMS5003;49382;-25.924;28.194;2022-12-10T11:24:58;12;11;
40947;PMS5003;49382;-25.924;28.194;2022-12-10T11:27:29;14;13;
40947;PMS5003;49382;-25.924;28.194;2022-12-10T11:29:51;12;12;
40947;PMS5003;49382;-25.924;28.194;2022-12-10T11:32:20;11;11;
40947;PMS5003;49382;-25.924;28.194;2022-12-10T11:34:43;13;13;
40947;PMS5003;49382;-25.924;28.194;2022-12-10T11:37:08;12;12;
40947;PMS5003;49382;-25.924;28.194;2022-12-10T11:39:38;13;13;
40947;PMS5003;49382;-25.924;28.194;2022-12-10T11:41:59;14;14;
40947;PMS5003;49382;-25.924;28.194;2022-12-10T11:44:25;14;14;
40947;PMS5003;49382;-25.924;28.194;2022-12-10T11:46:54;15;14;
40947;PMS5003;49382;-25.924;28.194;2022-12-10T11:49:18;14;13;
40947;PMS5003;49382;-25.924;28.194;2022-12-10T11:51:42;14;14;
40947;PMS5003;49382;-25.924;28.194;2022-12-10T11:54:11;16;16;
40947;PMS5003;49382;-25.924;28.194;2022-12-10T11:56:34;14;14;
40947;PMS5003;49382;-25.924;28.194;2022-12-10T11:59:03;14;14;
40947;PMS5003;49382;-25.924;28.194;2022-12-10T12:01:25;15;15;
40947;PMS5003;49382;-25.924;28.194;2022-12-10T12:03:54;14;14;
40947;PMS5003;49382;-25.924;28.194;2022-12-10T12:06:19;17;17;
40947;PMS5003;49382;-25.924;28.194;2022-12-10T12:08:43;16;16;
40947;PMS5003;49382;-25.924;28.194;2022-12-10T12:11:10;14;14;
40947;PMS5003;49382;-25.924;28.194;2022-12-10T12:13:33;14;13;
40947;PMS5003;49382;-25.924;28.194;2022-12-10T12:15:59;16;16;
40947;PMS5003;49382;-25.924;28.194;2022-12-10T12:18:27;13;13;
40947;PMS5003;49382;-25.924;28.194;2022-12-10T12:20:51;14;14;
40947;PMS5003;49382;-25.924;28.194;2022-12-10T12:23:16;13;13;
40947;PMS5003;49382;-25.924;28.194;2022-12-10T12:25:41;20;20;
40947;PMS5003;49382;-25.924;28.194;2022-12-10T12:28:09;32;32;
40947;PMS5003;49382;-25.924;28.194;2022-12-10T12:30:31;22;22;
40947;PMS5003;49382;-25.924;28.194;2022-12-10T12:32:57;17;17;
40947;PMS5003;49382;-25.924;28.194;2022-12-10T12:35:23;14;14;
40947;PMS5003;49382;-25.924;28.194;2022-12-10T12:37:50;13;13;
40947;PMS5003;49382;-25.924;28.194;2022-12-10T12:40:14;13;13;
40947;PMS5003;49382;-25.924;28.194;2022-12-10T12:42:41;14;14;
40947;PMS5003;49382;-25.924;28.194;2022-12-10T12:45:08;15;15;
40947;PMS5003;49382;-25.924;28.194;2022-12-10T12:47:34;18;17;
40947;PMS5003;49382;-25.924;28.194;2022-12-10T12:49:56;18;18;
40947;PMS5003;49382;-25.924;28.194;2022-12-10T12:52:25;19;19;
40947;PMS5003;49382;-25.924;28.194;2022-12-10T12:54:48;19;19;
40947;PMS5003;49382;-25.924;28.194;2022-12-10T12:57:14;21;21;
40947;PMS5003;49382;-25.924;28.194;2022-12-10T12:59:46;19;19;
40947;PMS5003;49382;-25.924;28.194;2022-12-10T13:02:08;16;16;
40947;PMS5003;49382;-25.924;28.194;2022-12-10T13:04:31;16;16;
40947;PMS5003;49382;-25.924;28.194;2022-12-10T13:09:24;15;15;
40947;PMS5003;49382;-25.924;28.194;2022-12-10T13:14:16;14;14;
40947;PMS5003;49382;-25.924;28.194;2022-12-10T13:21:31;14;14;
40947;PMS5003;49382;-25.924;28.194;2022-12-10T13:26:23;13;13;
40947;PMS5003;49382;-25.924;28.194;2022-12-10T13:28:49;17;16;
40947;PMS5003;49382;-25.924;28.194;2022-12-10T13:31:20;14;14;
40947;PMS5003;49382;-25.924;28.194;2022-12-10T13:36:06;14;14;
40947;PMS5003;49382;-25.924;28.194;2022-12-10T13:38:31;12;12;
40947;PMS5003;49382;-25.924;28.194;2022-12-10T13:40:59;12;12;
40947;PMS5003;49382;-25.924;28.194;2022-12-10T13:43:26;15;15;
40947;PMS5003;49382;-25.924;28.194;2022-12-10T13:45:48;14;14;
40947;PMS5003;49382;-25.924;28.194;2022-12-10T13:48:17;14;14;
40947;PMS5003;49382;-25.924;28.194;2022-12-10T13:50:41;13;13;
40947;PMS5003;49382;-25.924;28.194;2022-12-10T13:53:07;14;14;
40947;PMS5003;49382;-25.924;28.194;2022-12-10T13:55:32;13;13;
40947;PMS5003;49382;-25.924;28.194;2022-12-10T13:58:05;14;14;
40947;PMS5003;49382;-25.924;28.194;2022-12-10T14:00:23;17;17;
40947;PMS5003;49382;-25.924;28.194;2022-12-10T14:02:54;13;12;
40947;PMS5003;49382;-25.924;28.194;2022-12-10T14:07:42;15;15;
40947;PMS5003;49382;-25.924;28.194;2022-12-10T14:10:08;13;13;
40947;PMS5003;49382;-25.924;28.194;2022-12-10T14:12:32;13;13;
40947;PMS5003;49382;-25.924;28.194;2022-12-10T14:14:58;13;13;
40947;PMS5003;49382;-25.924;28.194;2022-12-10T14:17:24;13;13;
40947;PMS5003;49382;-25.924;28.194;2022-12-10T14:19:50;13;13;
40947;PMS5003;49382;-25.924;28.194;2022-12-10T14:22:16;15;15;
40947;PMS5003;49382;-25.924;28.194;2022-12-10T14:24:41;17;17;
40947;PMS5003;49382;-25.924;28.194;2022-12-10T14:27:11;18;18;
40947;PMS5003;49382;-25.924;28.194;2022-12-10T14:29:32;14;14;
40947;PMS5003;49382;-25.924;28.194;2022-12-10T14:31:58;15;15;
40947;PMS5003;49382;-25.924;28.194;2022-12-10T14:34:25;14;14;
40947;PMS5003;49382;-25.924;28.194;2022-12-10T14:36:50;15;15;
40947;PMS5003;49382;-25.924;28.194;2022-12-10T14:39:16;14;14;
40947;PMS5003;49382;-25.924;28.194;2022-12-10T14:41:41;14;14;
40947;PMS5003;49382;-25.924;28.194;2022-12-10T14:44:08;16;16;
40947;PMS5003;49382;-25.924;28.194;2022-12-10T14:46:32;14;14;
40947;PMS5003;49382;-25.924;28.194;2022-12-10T14:48:58;11;11;
40947;PMS5003;49382;-25.924;28.194;2022-12-10T14:51:25;12;12;
40947;PMS5003;49382;-25.924;28.194;2022-12-10T14:53:50;12;12;
40947;PMS5003;49382;-25.924;28.194;2022-12-10T14:56:18;13;12;
40947;PMS5003;49382;-25.924;28.194;2022-12-10T14:58:42;12;12;
40947;PMS5003;49382;-25.924;28.194;2022-12-10T15:01:09;11;11;
40947;PMS5003;49382;-25.924;28.194;2022-12-10T15:03:34;12;12;
40947;PMS5003;49382;-25.924;28.194;2022-12-10T15:05:59;12;12;
40947;PMS5003;49382;-25.924;28.194;2022-12-10T15:08:24;15;15;
40947;PMS5003;49382;-25.924;28.194;2022-12-10T15:10:51;16;16;
40947;PMS5003;49382;-25.924;28.194;2022-12-10T15:13:17;19;19;
40947;PMS5003;49382;-25.924;28.194;2022-12-10T15:15:41;18;17;
40947;PMS5003;49382;-25.924;28.194;2022-12-10T15:18:09;19;18;
40947;PMS5003;49382;-25.924;28.194;2022-12-10T15:20:37;17;17;
40947;PMS5003;49382;-25.924;28.194;2022-12-10T15:25:26;15;14;
40947;PMS5003;49382;-25.924;28.194;2022-12-10T15:27:54;15;15;
40947;PMS5003;49382;-25.924;28.194;2022-12-10T15:32:44;18;18;
40947;PMS5003;49382;-25.924;28.194;2022-12-10T15:35:10;19;18;
40947;PMS5003;49382;-25.924;28.194;2022-12-10T15:37:33;16;15;
40947;PMS5003;49382;-25.924;28.194;2022-12-10T15:40:00;19;19;
40947;PMS5003;49382;-25.924;28.194;2022-12-10T15:42:29;21;21;
40947;PMS5003;49382;-25.924;28.194;2022-12-10T15:44:53;23;23;
40947;PMS5003;49382;-25.924;28.194;2022-12-10T15:47:17;18;18;
40947;PMS5003;49382;-25.924;28.194;2022-12-10T15:49:42;17;17;
40947;PMS5003;49382;-25.924;28.194;2022-12-10T15:52:09;18;18;
40947;PMS5003;49382;-25.924;28.194;2022-12-10T15:54:34;26;26;
40947;PMS5003;49382;-25.924;28.194;2022-12-10T15:56:59;24;23;
40947;PMS5003;49382;-25.924;28.194;2022-12-10T15:59:25;14;14;
40947;PMS5003;49382;-25.924;28.194;2022-12-10T16:01:51;16;16;
40947;PMS5003;49382;-25.924;28.194;2022-12-10T16:04:17;12;12;
40947;PMS5003;49382;-25.924;28.194;2022-12-10T16:06:42;11;11;
40947;PMS5003;49382;-25.924;28.194;2022-12-10T16:09:08;12;12;
40947;PMS5003;49382;-25.924;28.194;2022-12-10T16:11:33;11;11;
40947;PMS5003;49382;-25.924;28.194;2022-12-10T16:13:59;11;11;
40947;PMS5003;49382;-25.924;28.194;2022-12-10T16:16:25;11;11;
40947;PMS5003;49382;-25.924;28.194;2022-12-10T16:18:52;11;11;
40947;PMS5003;49382;-25.924;28.194;2022-12-10T16:21:16;11;11;
40947;PMS5003;49382;-25.924;28.194;2022-12-10T16:23:42;14;14;
40947;PMS5003;49382;-25.924;28.194;2022-12-10T16:26:13;11;11;
40947;PMS5003;49382;-25.924;28.194;2022-12-10T16:28:34;11;11;